Time;durP1;ratioP1;P1;durP2;ratioP2;P2;SDS_P1;SDS_P2;PMS_P1;PMS_P2;Temp;Humidity;BMP_temperature;BMP_pressure;BME280_temperature;BME280_humidity;BME280_pressure;Samples;Min_cycle;Max_cycle;Signal;HPM_P1;HPM_P2
2022/02/13 00:00:10;;;;;;;16.80;13.80;;;1.90;99.90;;;;;;5077691;28;20744;-67
2022/02/13 00:02:38;;;;;;;17.80;12.60;;;1.90;99.90;;;;;;5076790;28;20863;-68
2022/02/13 00:05:05;;;;;;;18.93;12.67;;;2.00;99.90;;;;;;5076921;28;20454;-69
2022/02/13 00:07:33;;;;;;;17.60;12.27;;;2.00;99.90;;;;;;5076613;28;20465;-68
2022/02/13 00:10:00;;;;;;;14.87;11.37;;;2.00;99.90;;;;;;5076690;28;20489;-68
2022/02/13 00:12:26;;;;;;;19.23;11.83;;;2.00;99.90;;;;;;5076977;28;20489;-68
2022/02/13 00:14:54;;;;;;;16.07;11.50;;;2.00;99.90;;;;;;5076820;28;20535;-67
2022/02/13 00:17:21;;;;;;;16.27;10.57;;;2.10;99.90;;;;;;5076797;28;20461;-68
2022/02/13 00:19:48;;;;;;;17.43;11.90;;;2.10;99.90;;;;;;5076266;28;20930;-67
2022/02/13 00:22:17;;;;;;;15.20;11.33;;;2.10;99.90;;;;;;5076648;28;20786;-68
2022/02/13 00:24:44;;;;;;;17.57;11.43;;;2.10;99.90;;;;;;5076367;28;20469;-67
2022/02/13 00:27:10;;;;;;;18.50;11.90;;;2.10;99.90;;;;;;5076331;28;20458;-68
2022/02/13 00:29:37;;;;;;;16.77;12.87;;;2.10;99.90;;;;;;5075680;28;20490;-68
2022/02/13 00:32:06;;;;;;;15.00;11.57;;;2.10;99.90;;;;;;5076205;28;20805;-68
2022/02/13 00:34:33;;;;;;;16.40;11.80;;;2.00;99.90;;;;;;5077116;28;20741;-67
2022/02/13 00:37:01;;;;;;;14.50;11.00;;;2.10;99.90;;;;;;5078678;28;20531;-67
2022/02/13 00:39:28;;;;;;;14.33;11.17;;;2.10;99.90;;;;;;5078649;28;20515;-67
2022/02/13 00:41:55;;;;;;;14.80;11.10;;;2.00;99.90;;;;;;5076040;28;20454;-67
2022/02/13 00:44:22;;;;;;;16.80;12.17;;;2.00;99.90;;;;;;5076275;28;20473;-68
2022/02/13 00:46:49;;;;;;;15.47;11.73;;;2.00;99.90;;;;;;5076078;28;20473;-67
2022/02/13 00:49:17;;;;;;;13.13;11.30;;;2.00;99.90;;;;;;5076708;28;20465;-68
2022/02/13 00:51:44;;;;;;;15.17;11.87;;;1.90;99.90;;;;;;5075576;28;20513;-68
2022/02/13 00:54:10;;;;;;;13.10;10.57;;;1.90;99.90;;;;;;5075888;28;20459;-67
2022/02/13 00:56:37;;;;;;;15.20;10.10;;;1.90;99.90;;;;;;5075754;28;20470;-68
2022/02/13 00:59:04;;;;;;;17.77;11.80;;;1.90;99.90;;;;;;5075753;28;20964;-68
2022/02/13 01:01:30;;;;;;;14.43;10.47;;;1.90;99.90;;;;;;5075791;28;20553;-67
2022/02/13 01:03:57;;;;;;;13.70;10.90;;;2.00;99.90;;;;;;5075274;28;20465;-67
2022/02/13 01:06:28;;;;;;;15.63;10.80;;;2.10;99.90;;;;;;5075518;28;20458;-67
2022/02/13 01:08:55;;;;;;;13.23;10.67;;;2.00;99.90;;;;;;5075134;28;20462;-68
2022/02/13 01:11:24;;;;;;;15.30;10.63;;;2.10;99.90;;;;;;5075044;28;20486;-68
2022/02/13 01:13:51;;;;;;;13.73;10.50;;;2.10;99.90;;;;;;5075273;28;20454;-67
2022/02/13 01:16:18;;;;;;;12.67;10.20;;;2.10;99.90;;;;;;5075333;28;20450;-67
2022/02/13 01:18:45;;;;;;;16.57;10.00;;;2.10;99.90;;;;;;5076126;28;20450;-67
2022/02/13 01:21:12;;;;;;;14.10;10.23;;;2.10;99.90;;;;;;5075099;28;20464;-68
2022/02/13 01:23:40;;;;;;;13.20;10.93;;;2.10;99.90;;;;;;5075286;28;20458;-67
2022/02/13 01:26:10;;;;;;;14.07;10.30;;;2.20;99.90;;;;;;5075229;28;20821;-68
2022/02/13 01:28:38;;;;;;;14.70;10.97;;;2.20;99.90;;;;;;5075173;28;20462;-67
2022/02/13 01:31:06;;;;;;;12.60;9.57;;;2.20;99.90;;;;;;5075066;28;20830;-67
2022/02/13 01:33:33;;;;;;;15.67;10.43;;;2.10;99.90;;;;;;5075219;28;20453;-67
2022/02/13 01:36:01;;;;;;;11.83;9.43;;;2.10;99.90;;;;;;5075045;28;20454;-67
2022/02/13 01:38:28;;;;;;;19.40;9.73;;;2.10;99.90;;;;;;5074702;28;20462;-68
2022/02/13 01:40:56;;;;;;;11.80;9.70;;;2.10;99.90;;;;;;5075137;28;20454;-67
2022/02/13 01:43:23;;;;;;;12.47;10.00;;;2.10;99.90;;;;;;5075142;28;20465;-67
2022/02/13 01:45:50;;;;;;;17.87;9.43;;;2.10;99.90;;;;;;5075071;28;20457;-67
2022/02/13 01:48:17;;;;;;;13.93;9.60;;;2.10;99.90;;;;;;5074980;28;20454;-67
2022/02/13 01:50:46;;;;;;;15.20;9.53;;;2.10;99.90;;;;;;5074958;28;20489;-67
2022/02/13 01:53:16;;;;;;;13.80;10.20;;;2.10;99.90;;;;;;5074789;28;20465;-67
2022/02/13 01:55:46;;;;;;;11.73;9.70;;;2.00;99.90;;;;;;5075081;28;20462;-67
2022/02/13 01:58:15;;;;;;;13.87;9.10;;;2.00;99.90;;;;;;5074811;28;20461;-67
2022/02/13 02:00:46;;;;;;;12.67;9.67;;;2.00;99.90;;;;;;5074814;28;20458;-67
2022/02/13 02:03:13;;;;;;;13.00;9.87;;;2.00;99.90;;;;;;5074769;28;20547;-67
2022/02/13 02:05:42;;;;;;;16.00;10.73;;;2.00;99.90;;;;;;5074621;28;20454;-67
2022/02/13 02:08:09;;;;;;;13.80;9.73;;;1.90;99.90;;;;;;5074486;28;20465;-68
2022/02/13 02:10:37;;;;;;;13.10;9.50;;;1.90;99.90;;;;;;5074478;28;20485;-66
2022/02/13 02:13:04;;;;;;;11.40;9.77;;;1.90;99.90;;;;;;5074712;28;20492;-68
2022/02/13 02:15:32;;;;;;;12.53;9.83;;;1.90;99.90;;;;;;5074637;28;20458;-67
2022/02/13 02:17:59;;;;;;;13.83;9.87;;;1.90;99.90;;;;;;5074636;28;20454;-67
2022/02/13 02:20:29;;;;;;;15.70;9.83;;;1.80;99.90;;;;;;5075040;28;20454;-67
2022/02/13 02:22:58;;;;;;;14.47;9.33;;;1.80;99.90;;;;;;5074690;28;20741;-67
2022/02/13 02:25:25;;;;;;;16.30;10.40;;;1.80;99.90;;;;;;5074661;28;20454;-67
2022/02/13 02:27:51;;;;;;;12.73;9.13;;;1.80;99.90;;;;;;5074637;28;20462;-68
2022/02/13 02:30:18;;;;;;;13.20;10.40;;;1.80;99.90;;;;;;5074609;28;20490;-67
2022/02/13 02:32:45;;;;;;;15.70;9.83;;;1.90;99.90;;;;;;5074794;28;20569;-67
2022/02/13 02:35:11;;;;;;;14.60;10.50;;;1.80;99.90;;;;;;5074655;28;20466;-67
2022/02/13 02:37:38;;;;;;;15.20;10.07;;;1.80;99.90;;;;;;5074710;28;20928;-68
2022/02/13 02:40:07;;;;;;;13.70;10.60;;;1.80;99.90;;;;;;5075112;28;20458;-66
2022/02/13 02:42:34;;;;;;;14.60;10.20;;;1.80;99.90;;;;;;5074258;28;20458;-68
2022/02/13 02:45:01;;;;;;;12.13;9.93;;;1.80;99.90;;;;;;5074308;28;20458;-68
2022/02/13 02:47:27;;;;;;;14.27;10.43;;;1.80;99.90;;;;;;5074119;28;20567;-68
2022/02/13 02:49:54;;;;;;;17.43;10.30;;;1.80;99.90;;;;;;5073983;28;20458;-68
2022/02/13 02:52:21;;;;;;;16.40;10.17;;;1.80;99.90;;;;;;5077120;28;20958;-68
2022/02/13 02:54:47;;;;;;;14.70;10.53;;;1.80;99.90;;;;;;5078089;28;20565;-68
2022/02/13 02:57:15;;;;;;;14.77;10.57;;;1.80;99.90;;;;;;5078112;28;20457;-68
2022/02/13 02:59:42;;;;;;;16.20;11.40;;;1.70;99.90;;;;;;5078153;28;20564;-68
2022/02/13 03:02:09;;;;;;;12.00;9.70;;;1.70;99.90;;;;;;5078008;28;20511;-68
2022/02/13 03:04:35;;;;;;;16.90;10.53;;;1.70;99.90;;;;;;5077895;28;20458;-69
2022/02/13 03:07:02;;;;;;;16.73;10.47;;;1.70;99.90;;;;;;5077856;28;20458;-68
2022/02/13 03:09:29;;;;;;;14.10;10.27;;;1.70;99.90;;;;;;5077876;28;20469;-67
2022/02/13 03:11:56;;;;;;;15.53;10.50;;;1.70;99.90;;;;;;5077717;28;20470;-70
2022/02/13 03:14:24;;;;;;;14.60;9.00;;;1.80;99.90;;;;;;5078557;28;20848;-70
2022/02/13 03:16:50;;;;;;;13.90;10.60;;;1.70;99.90;;;;;;5077635;28;20472;-70
2022/02/13 03:19:17;;;;;;;13.03;9.20;;;1.70;99.90;;;;;;5077451;28;20926;-70
2022/02/13 03:21:44;;;;;;;16.17;9.50;;;1.70;99.90;;;;;;5077663;28;20515;-70
2022/02/13 03:24:10;;;;;;;12.57;9.77;;;1.70;99.90;;;;;;5077748;28;20475;-70
2022/02/13 03:26:37;;;;;;;13.33;9.43;;;1.70;99.90;;;;;;5077950;28;20462;-70
2022/02/13 03:29:05;;;;;;;14.10;10.10;;;1.60;99.90;;;;;;5078497;28;20485;-70
2022/02/13 03:31:33;;;;;;;15.00;11.37;;;1.70;99.90;;;;;;5077698;28;20857;-71
2022/02/13 03:33:59;;;;;;;15.13;10.07;;;1.70;99.90;;;;;;5077440;28;20454;-69
2022/02/13 03:36:26;;;;;;;16.23;10.57;;;1.70;99.90;;;;;;5077295;28;20461;-69
2022/02/13 03:38:53;;;;;;;15.50;9.60;;;1.70;99.90;;;;;;5077347;28;20477;-69
2022/02/13 03:41:20;;;;;;;16.57;10.03;;;1.70;99.90;;;;;;5077166;28;20454;-69
2022/02/13 03:43:46;;;;;;;13.10;9.87;;;1.60;99.90;;;;;;5077227;28;20450;-70
2022/02/13 03:46:13;;;;;;;17.83;10.43;;;1.60;99.90;;;;;;5077291;28;20906;-70
2022/02/13 03:48:41;;;;;;;13.80;10.20;;;1.60;99.90;;;;;;5077849;28;20830;-70
2022/02/13 03:51:08;;;;;;;13.53;9.60;;;1.60;99.90;;;;;;5077070;28;20454;-70
2022/02/13 03:53:35;;;;;;;12.70;9.63;;;1.60;99.90;;;;;;5076948;28;20492;-70
2022/02/13 03:56:01;;;;;;;16.93;10.10;;;1.70;99.90;;;;;;5077303;28;20454;-70
2022/02/13 03:58:28;;;;;;;13.37;9.53;;;1.60;99.90;;;;;;5076946;28;20842;-70
2022/02/13 04:00:55;;;;;;;16.43;9.63;;;1.60;99.90;;;;;;5076655;28;20465;-70
2022/02/13 04:03:22;;;;;;;14.07;9.20;;;1.60;99.90;;;;;;5076511;28;20469;-70
2022/02/13 04:05:53;;;;;;;14.23;11.20;;;1.60;99.90;;;;;;5076461;28;20923;-71
2022/02/13 04:08:20;;;;;;;14.13;10.30;;;1.60;99.90;;;;;;5077086;28;20855;-70
2022/02/13 04:10:47;;;;;;;14.83;10.50;;;1.60;99.90;;;;;;5076679;28;20458;-70
2022/02/13 04:13:13;;;;;;;14.90;9.70;;;1.60;99.90;;;;;;5076913;28;20810;-70
2022/02/13 04:15:40;;;;;;;14.30;9.60;;;1.60;99.90;;;;;;5076902;28;20503;-70
2022/02/13 04:18:13;;;;;;;15.27;10.60;;;1.60;99.90;;;;;;5076892;28;20458;-70
2022/02/13 04:20:40;;;;;;;13.77;10.20;;;1.60;99.90;;;;;;5076509;28;20478;-70
2022/02/13 04:23:09;;;;;;;14.07;9.57;;;1.60;99.90;;;;;;5076732;28;20454;-70
2022/02/13 04:25:36;;;;;;;17.77;9.73;;;1.60;99.90;;;;;;5076644;28;20519;-70
2022/02/13 04:28:03;;;;;;;13.30;10.07;;;1.60;99.90;;;;;;5076709;28;20476;-69
2022/02/13 04:30:31;;;;;;;14.63;10.50;;;1.60;99.90;;;;;;5076225;28;20486;-69
2022/02/13 04:32:57;;;;;;;15.57;10.37;;;1.60;99.90;;;;;;5076678;28;20488;-70
2022/02/13 04:35:25;;;;;;;15.00;9.43;;;1.60;99.90;;;;;;5076222;28;20934;-70
2022/02/13 04:37:53;;;;;;;12.20;9.30;;;1.60;99.90;;;;;;5076352;28;20926;-70
2022/02/13 04:40:22;;;;;;;11.70;8.50;;;1.50;99.90;;;;;;5076705;28;20786;-70
2022/02/13 04:42:49;;;;;;;13.63;9.77;;;1.40;99.90;;;;;;5078875;28;20461;-71
2022/02/13 04:45:15;;;;;;;13.67;9.67;;;1.40;99.90;;;;;;5078723;28;20458;-71
2022/02/13 04:47:42;;;;;;;13.30;10.33;;;1.40;99.90;;;;;;5077486;28;20771;-70
2022/02/13 04:50:10;;;;;;;14.00;9.80;;;1.40;99.90;;;;;;5076638;28;20458;-70
2022/02/13 04:52:37;;;;;;;14.33;10.60;;;1.40;99.90;;;;;;5076060;28;20478;-70
2022/02/13 04:55:04;;;;;;;21.07;9.87;;;1.40;99.90;;;;;;5076053;28;20469;-70
2022/02/13 04:57:33;;;;;;;14.87;10.60;;;1.40;99.90;;;;;;5076015;28;20450;-70
2022/02/13 04:59:59;;;;;;;14.73;9.87;;;1.30;99.90;;;;;;5076324;28;20834;-70
2022/02/13 05:02:28;;;;;;;13.63;10.17;;;1.40;99.90;;;;;;5075981;28;20785;-70
2022/02/13 05:04:55;;;;;;;16.93;11.63;;;1.30;99.90;;;;;;5076243;28;20459;-70
2022/02/13 05:07:21;;;;;;;16.50;10.40;;;1.30;99.90;;;;;;5075785;28;20530;-70
2022/02/13 05:09:48;;;;;;;16.53;10.60;;;1.30;99.90;;;;;;5075489;28;20477;-70
2022/02/13 05:12:15;;;;;;;11.80;9.67;;;1.30;99.90;;;;;;5075769;28;20791;-68
2022/02/13 05:14:43;;;;;;;17.53;10.40;;;1.30;99.90;;;;;;5074763;28;20469;-68
2022/02/13 05:17:09;;;;;;;15.47;9.90;;;1.30;99.90;;;;;;5076121;28;20469;-67
2022/02/13 05:19:36;;;;;;;14.77;10.77;;;1.30;99.90;;;;;;5075286;28;20462;-68
2022/02/13 05:22:03;;;;;;;16.13;9.80;;;1.30;99.90;;;;;;5075468;28;20469;-67
2022/02/13 05:24:34;;;;;;;19.10;12.10;;;1.30;99.90;;;;;;5075294;28;20469;-68
2022/02/13 05:27:01;;;;;;;16.30;10.37;;;1.30;99.90;;;;;;5075035;28;20546;-67
2022/02/13 05:29:28;;;;;;;15.90;9.80;;;1.30;99.90;;;;;;5075690;28;20576;-67
2022/02/13 05:31:56;;;;;;;15.87;10.80;;;1.30;99.90;;;;;;5075155;28;20767;-68
2022/02/13 05:34:22;;;;;;;18.80;10.73;;;1.40;99.90;;;;;;5074825;28;20455;-68
2022/02/13 05:36:50;;;;;;;13.33;9.90;;;1.30;99.90;;;;;;5075183;28;20464;-68
2022/02/13 05:39:17;;;;;;;16.77;10.77;;;1.30;99.90;;;;;;5075080;28;20473;-67
2022/02/13 05:41:45;;;;;;;15.73;10.20;;;1.30;99.90;;;;;;5074597;28;20470;-67
2022/02/13 05:44:11;;;;;;;20.53;10.87;;;1.30;99.90;;;;;;5074823;28;20497;-67
2022/02/13 05:46:38;;;;;;;15.97;10.07;;;1.20;99.90;;;;;;5075310;28;20462;-67
2022/02/13 05:49:06;;;;;;;17.73;10.87;;;1.20;99.90;;;;;;5074825;28;20942;-68
2022/02/13 05:51:33;;;;;;;16.80;10.17;;;1.20;99.90;;;;;;5074660;28;20462;-67
2022/02/13 05:54:00;;;;;;;16.53;11.50;;;1.10;99.90;;;;;;5075412;28;20478;-67
2022/02/13 05:56:30;;;;;;;21.13;10.90;;;1.10;99.90;;;;;;5075082;28;20454;-68
2022/02/13 05:58:57;;;;;;;18.50;10.43;;;1.20;99.90;;;;;;5075074;28;20462;-67
2022/02/13 06:01:24;;;;;;;15.50;10.47;;;1.10;99.90;;;;;;5074929;28;20915;-67
2022/02/13 06:03:51;;;;;;;14.13;10.30;;;1.10;99.90;;;;;;5074872;28;20454;-70
2022/02/13 06:06:21;;;;;;;15.27;11.03;;;1.10;99.90;;;;;;5074694;28;20929;-68
2022/02/13 06:08:47;;;;;;;15.03;10.77;;;1.10;99.90;;;;;;5075688;28;20773;-67
2022/02/13 06:11:14;;;;;;;20.07;11.00;;;1.00;99.90;;;;;;5074716;28;20446;-68
2022/02/13 06:13:41;;;;;;;14.97;10.50;;;1.00;99.90;;;;;;5075006;28;20501;-67
2022/02/13 06:16:09;;;;;;;13.50;10.97;;;1.00;99.90;;;;;;5075462;28;20466;-66
2022/02/13 06:18:38;;;;;;;12.30;10.80;;;1.00;99.90;;;;;;5076397;28;20468;-67
2022/02/13 06:21:05;;;;;;;14.80;9.73;;;1.00;99.90;;;;;;5077035;28;20511;-66
2022/02/13 06:23:33;;;;;;;14.73;10.23;;;1.00;99.90;;;;;;5079179;28;20508;-67
2022/02/13 06:26:00;;;;;;;17.03;10.70;;;1.10;99.90;;;;;;5088582;28;20457;-67
2022/02/13 06:28:27;;;;;;;16.03;10.27;;;1.10;99.90;;;;;;5083075;28;20529;-67
2022/02/13 06:30:54;;;;;;;15.07;10.17;;;1.10;99.90;;;;;;5077457;28;20461;-67
2022/02/13 06:33:20;;;;;;;13.80;10.70;;;1.10;99.90;;;;;;5074877;28;20577;-67
2022/02/13 06:35:47;;;;;;;17.53;11.17;;;1.00;99.90;;;;;;5074646;28;20454;-67
2022/02/13 06:38:15;;;;;;;16.57;8.93;;;1.00;99.90;;;;;;5075453;28;20446;-67
2022/02/13 06:40:43;;;;;;;13.60;10.00;;;1.00;99.90;;;;;;5077282;28;20462;-67
2022/02/13 06:43:10;;;;;;;14.67;9.83;;;1.00;99.90;;;;;;5076588;28;20462;-67
2022/02/13 06:45:37;;;;;;;13.40;9.97;;;1.00;99.90;;;;;;5075241;28;20461;-68
2022/02/13 06:48:05;;;;;;;15.23;10.67;;;1.10;99.90;;;;;;5075616;28;20486;-68
2022/02/13 06:50:32;;;;;;;16.00;9.93;;;1.10;99.90;;;;;;5074783;28;20919;-68
2022/02/13 06:52:59;;;;;;;11.47;9.57;;;1.10;99.90;;;;;;5073779;28;20576;-67
2022/02/13 06:55:26;;;;;;;12.57;10.00;;;1.10;99.90;;;;;;5074243;28;20454;-67
2022/02/13 06:57:54;;;;;;;13.07;9.50;;;1.10;99.90;;;;;;5074342;28;20462;-67
2022/02/13 07:00:21;;;;;;;12.73;9.67;;;1.10;99.90;;;;;;5074179;28;20778;-68
2022/02/13 07:02:48;;;;;;;13.40;9.80;;;1.10;99.90;;;;;;5074118;28;20549;-68
2022/02/13 07:05:16;;;;;;;12.20;9.90;;;1.10;99.90;;;;;;5074093;28;20454;-68
2022/02/13 07:07:43;;;;;;;15.70;10.60;;;1.10;99.90;;;;;;5073964;28;20462;-68
2022/02/13 07:10:13;;;;;;;14.07;9.97;;;1.10;99.90;;;;;;5073971;28;20459;-68
2022/02/13 07:12:40;;;;;;;15.80;9.87;;;1.20;99.90;;;;;;5073866;28;20469;-68
2022/02/13 07:15:09;;;;;;;14.70;9.80;;;1.20;99.90;;;;;;5074097;28;20809;-67
2022/02/13 07:17:36;;;;;;;12.90;9.30;;;1.20;99.90;;;;;;5074260;28;20496;-68
2022/02/13 07:20:04;;;;;;;12.33;8.90;;;1.10;99.90;;;;;;5074090;28;20464;-68
2022/02/13 07:22:31;;;;;;;17.50;9.83;;;1.10;99.90;;;;;;5075181;28;20537;-66
2022/02/13 07:25:01;;;;;;;14.70;9.67;;;1.20;99.90;;;;;;5074444;28;20922;-68
2022/02/13 07:27:27;;;;;;;13.63;8.90;;;1.30;99.90;;;;;;5074580;28;20458;-67
2022/02/13 07:29:54;;;;;;;12.03;8.70;;;1.30;99.90;;;;;;5074845;28;20486;-68
2022/02/13 07:32:22;;;;;;;14.03;10.07;;;1.30;99.90;;;;;;5074923;28;20477;-69
2022/02/13 07:34:49;;;;;;;10.23;8.10;;;1.30;99.90;;;;;;5074717;28;20478;-69
2022/02/13 07:37:15;;;;;;;14.33;8.53;;;1.30;99.90;;;;;;5075313;28;20891;-69
2022/02/13 07:39:42;;;;;;;12.40;9.03;;;1.40;99.90;;;;;;5077163;28;20473;-71
2022/02/13 07:42:10;;;;;;;11.10;8.37;;;1.40;99.90;;;;;;5077384;28;20903;-70
2022/02/13 07:44:39;;;;;;;16.03;9.20;;;1.40;99.90;;;;;;5077688;28;20789;-70
2022/02/13 07:47:06;;;;;;;15.27;8.63;;;1.40;99.90;;;;;;5077159;28;20464;-70
2022/02/13 07:49:34;;;;;;;13.27;9.23;;;1.40;99.90;;;;;;5077568;28;20454;-70
2022/02/13 07:52:01;;;;;;;10.80;9.43;;;1.50;99.90;;;;;;5077592;28;20459;-68
2022/02/13 07:54:29;;;;;;;11.47;9.43;;;1.50;99.90;;;;;;5077347;28;20524;-69
2022/02/13 07:56:56;;;;;;;15.17;8.13;;;1.50;99.90;;;;;;5077638;28;20798;-68
2022/02/13 07:59:22;;;;;;;11.90;9.27;;;1.60;99.90;;;;;;5077537;28;20458;-68
2022/02/13 08:01:49;;;;;;;10.10;8.50;;;1.60;99.90;;;;;;5077420;28;20465;-68
2022/02/13 08:04:16;;;;;;;10.90;8.10;;;1.60;99.90;;;;;;5076956;28;20906;-68
2022/02/13 08:06:44;;;;;;;10.80;8.93;;;1.60;99.90;;;;;;5077401;28;20470;-68
2022/02/13 08:09:12;;;;;;;9.83;8.03;;;1.60;99.90;;;;;;5077385;28;20465;-71
2022/02/13 08:11:39;;;;;;;13.43;8.60;;;1.60;99.90;;;;;;5077103;28;20469;-72
2022/02/13 08:14:05;;;;;;;12.37;8.53;;;1.70;99.90;;;;;;5077825;28;20478;-70
2022/02/13 08:16:32;;;;;;;14.00;8.40;;;1.80;99.90;;;;;;5077259;28;20926;-70
2022/02/13 08:18:59;;;;;;;11.60;8.87;;;1.80;99.90;;;;;;5077578;28;20477;-68
2022/02/13 08:21:25;;;;;;;11.73;8.30;;;1.90;99.90;;;;;;5076801;28;20919;-68
2022/02/13 08:23:54;;;;;;;10.23;7.80;;;1.90;99.90;;;;;;5077105;28;20454;-69
2022/02/13 08:26:20;;;;;;;11.33;8.43;;;2.00;99.90;;;;;;5077186;28;20493;-68
2022/02/13 08:28:47;;;;;;;10.27;8.70;;;2.10;99.90;;;;;;5076490;28;20486;-68
2022/02/13 08:31:14;;;;;;;10.37;8.40;;;2.20;99.90;;;;;;5076534;28;20870;-69
2022/02/13 08:33:41;;;;;;;9.53;8.20;;;2.20;99.90;;;;;;5076579;28;20536;-70
2022/02/13 08:36:08;;;;;;;13.67;9.07;;;2.30;99.90;;;;;;5076841;28;20471;-68
2022/02/13 08:38:35;;;;;;;11.60;8.00;;;2.30;99.90;;;;;;5076917;28;20465;-68
2022/02/13 08:41:04;;;;;;;10.27;7.60;;;2.30;99.90;;;;;;5076698;28;20458;-68
2022/02/13 08:43:31;;;;;;;10.00;8.00;;;2.30;99.90;;;;;;5076585;28;20450;-69
2022/02/13 08:45:57;;;;;;;15.83;8.00;;;2.40;99.90;;;;;;5076522;28;20469;-68
2022/02/13 08:48:24;;;;;;;11.10;8.17;;;2.50;99.90;;;;;;5076200;28;20919;-68
2022/02/13 08:50:52;;;;;;;11.47;8.17;;;2.60;99.90;;;;;;5076303;28;20458;-68
2022/02/13 08:53:19;;;;;;;9.33;7.70;;;2.70;99.90;;;;;;5076422;28;20488;-72
2022/02/13 08:55:46;;;;;;;10.37;7.33;;;2.70;99.90;;;;;;5076437;28;20465;-71
2022/02/13 08:58:14;;;;;;;9.60;7.90;;;2.70;99.90;;;;;;5076552;28;20469;-70
2022/02/13 09:00:41;;;;;;;12.03;7.60;;;2.70;99.90;;;;;;5077275;28;20465;-73
2022/02/13 09:03:08;;;;;;;13.30;7.93;;;2.80;99.90;;;;;;5078629;28;20739;-70
2022/02/13 09:05:35;;;;;;;11.93;7.77;;;2.90;99.90;;;;;;5076332;28;20469;-70
2022/02/13 09:08:02;;;;;;;9.97;7.60;;;3.00;99.90;;;;;;5076406;28;20760;-70
2022/02/13 09:10:29;;;;;;;11.37;8.17;;;3.00;99.90;;;;;;5076228;28;20468;-70
2022/02/13 09:12:56;;;;;;;10.40;7.53;;;3.10;99.90;;;;;;5076035;28;20458;-69
2022/02/13 09:15:25;;;;;;;13.33;7.30;;;3.10;99.90;;;;;;5075910;28;20561;-70
2022/02/13 09:17:51;;;;;;;8.20;6.60;;;3.20;99.90;;;;;;5075762;28;20466;-72
2022/02/13 09:20:18;;;;;;;8.73;7.13;;;3.30;99.90;;;;;;5075873;28;20787;-72
2022/02/13 09:22:45;;;;;;;9.17;7.10;;;3.30;99.90;;;;;;5075796;28;20465;-72
2022/02/13 09:25:11;;;;;;;11.77;6.77;;;3.40;99.90;;;;;;5076076;28;20489;-72
2022/02/13 09:27:40;;;;;;;12.43;6.80;;;3.40;99.90;;;;;;5076092;28;20458;-71
2022/02/13 09:30:07;;;;;;;10.67;8.20;;;3.50;99.90;;;;;;5075547;28;20490;-71
2022/02/13 09:32:38;;;;;;;8.40;7.03;;;3.50;99.90;;;;;;5075663;28;20469;-70
2022/02/13 09:35:07;;;;;;;11.70;8.07;;;3.60;99.90;;;;;;5076133;28;20834;-71
2022/02/13 09:37:34;;;;;;;8.43;7.07;;;3.60;99.90;;;;;;5079852;28;20464;-71
2022/02/13 09:40:01;;;;;;;9.03;7.60;;;3.70;99.90;;;;;;5080042;28;20828;-71
2022/02/13 09:42:28;;;;;;;8.43;7.27;;;3.80;99.90;;;;;;5079444;28;20515;-71
2022/02/13 09:44:55;;;;;;;10.40;7.23;;;3.80;99.90;;;;;;5078433;28;20451;-72
2022/02/13 09:47:25;;;;;;;8.90;7.40;;;3.80;99.90;;;;;;5078395;28;20465;-70
2022/02/13 09:49:53;;;;;;;10.20;6.87;;;3.80;99.90;;;;;;5076025;28;20461;-70
2022/02/13 09:52:20;;;;;;;8.93;6.80;;;3.90;99.90;;;;;;5075174;28;20771;-71
2022/02/13 09:54:47;;;;;;;7.77;6.73;;;4.00;99.90;;;;;;5074727;28;20965;-71
2022/02/13 10:00:02;;;;;;;10.30;6.50;;;4.10;99.90;;;;;;5074305;28;20480;-70
2022/02/13 10:02:37;;;;;;;9.00;6.77;;;4.10;99.90;;;;;;5074681;28;20476;-71
2022/02/13 10:05:08;;;;;;;11.90;7.30;;;4.20;99.90;;;;;;5074980;28;20457;-71
2022/02/13 10:07:35;;;;;;;7.93;6.57;;;4.20;99.90;;;;;;5074641;28;20459;-71
2022/02/13 10:10:05;;;;;;;7.17;6.37;;;4.30;99.90;;;;;;5075001;28;20885;-70
2022/02/13 10:12:38;;;;;;;10.60;6.70;;;4.40;99.90;;;;;;5075368;28;20457;-71
2022/02/13 10:15:29;;;;;;;8.40;6.90;;;4.50;99.90;;;;;;5075335;28;20577;-70
2022/02/13 10:18:04;;;;;;;13.17;6.83;;;4.60;99.90;;;;;;5074989;28;20507;-69
2022/02/13 10:20:33;;;;;;;6.40;5.60;;;4.60;99.90;;;;;;5075298;28;20525;-71
2022/02/13 10:23:08;;;;;;;7.57;6.30;;;4.70;99.90;;;;;;5075217;28;20465;-71
2022/02/13 10:25:36;;;;;;;7.80;5.90;;;4.80;99.90;;;;;;5076188;28;20472;-71
2022/02/13 10:28:11;;;;;;;6.60;5.30;;;4.90;99.90;;;;;;5076904;28;20465;-70
2022/02/13 10:30:40;;;;;;;9.13;6.23;;;4.90;99.90;;;;;;5078144;28;20942;-70
2022/02/13 10:33:17;;;;;;;8.00;5.93;;;4.90;99.90;;;;;;5077571;28;20543;-70
2022/02/13 10:36:05;;;;;;;6.43;5.33;;;5.00;99.90;;;;;;5076625;28;20485;-70
2022/02/13 10:38:33;;;;;;;7.87;6.20;;;5.10;99.90;;;;;;5076961;28;20446;-69
2022/02/13 10:41:20;;;;;;;8.13;5.97;;;5.10;99.90;;;;;;5075120;28;20838;-71
2022/02/13 10:43:54;;;;;;;7.83;5.60;;;5.10;99.90;;;;;;5075758;28;20473;-71
2022/02/13 10:46:23;;;;;;;6.50;5.80;;;5.10;99.90;;;;;;5075706;28;20927;-71
2022/02/13 10:48:49;;;;;;;9.97;6.30;;;5.20;99.90;;;;;;5074228;28;20454;-70
2022/02/13 10:51:19;;;;;;;7.33;5.70;;;5.20;99.90;;;;;;5074472;28;20458;-71
2022/02/13 10:53:46;;;;;;;6.87;5.70;;;5.20;99.90;;;;;;5074752;28;20805;-71
2022/02/13 10:56:13;;;;;;;7.23;5.63;;;5.20;99.90;;;;;;5074540;28;20454;-71
2022/02/13 10:58:40;;;;;;;8.03;5.90;;;5.30;99.90;;;;;;5074600;28;20462;-70
2022/02/13 11:01:07;;;;;;;7.37;5.60;;;5.20;99.90;;;;;;5074255;28;20458;-71
2022/02/13 11:03:36;;;;;;;7.60;5.80;;;5.30;99.90;;;;;;5073865;28;20458;-71
2022/02/13 11:06:05;;;;;;;6.40;5.77;;;5.30;99.90;;;;;;5074287;28;20515;-70
2022/02/13 11:08:39;;;;;;;7.87;5.60;;;5.40;99.90;;;;;;5073907;28;20458;-71
2022/02/13 11:11:06;;;;;;;6.50;5.30;;;5.60;99.90;;;;;;5073897;28;20446;-69
2022/02/13 11:13:37;;;;;;;8.80;5.93;;;5.60;99.90;;;;;;5077573;28;20457;-71
2022/02/13 11:16:30;;;;;;;6.90;6.27;;;5.70;99.90;;;;;;5077570;28;20467;-71
2022/02/13 11:19:01;;;;;;;7.30;5.60;;;5.80;99.90;;;;;;5077662;28;20875;-71
2022/02/13 11:21:29;;;;;;;6.47;5.43;;;5.90;99.90;;;;;;5077879;28;20434;-71
2022/02/13 11:23:59;;;;;;;7.07;5.30;;;6.00;99.90;;;;;;5077872;28;20548;-70
2022/02/13 11:26:36;;;;;;;7.73;5.97;;;6.00;99.90;;;;;;5077507;28;20564;-70
2022/02/13 11:29:04;;;;;;;8.00;6.17;;;6.10;99.90;;;;;;5077547;28;20489;-70
2022/02/13 11:31:40;;;;;;;6.77;5.20;;;6.10;99.90;;;;;;5077526;28;20525;-70
2022/02/13 11:34:09;;;;;;;8.13;5.50;;;6.20;99.90;;;;;;5077752;28;20520;-70
2022/02/13 11:36:56;;;;;;;6.13;4.83;;;6.30;99.90;;;;;;5077446;28;20549;-70
2022/02/13 11:39:36;;;;;;;6.87;5.70;;;6.30;99.90;;;;;;5077063;28;20948;-71
2022/02/13 11:42:10;;;;;;;5.93;5.20;;;6.40;99.90;;;;;;5077171;28;20461;-71
2022/02/13 11:44:49;;;;;;;5.30;4.80;;;6.40;99.90;;;;;;5077853;28;20430;-70
2022/02/13 11:47:21;;;;;;;5.60;4.83;;;6.50;99.90;;;;;;5077361;28;20542;-70
2022/02/13 11:50:27;;;;;;;5.80;4.67;;;6.50;99.90;;;;;;5078274;28;20744;-70
2022/02/13 11:53:24;;;;;;;8.00;6.37;;;6.60;99.90;;;;;;5077460;28;20462;-71
2022/02/13 11:55:52;;;;;;;8.53;5.87;;;6.60;99.90;;;;;;5076136;28;20481;-71
2022/02/13 11:58:19;;;;;;;7.47;5.40;;;6.60;99.90;;;;;;5077110;28;20461;-71
2022/02/13 12:00:49;;;;;;;6.73;5.60;;;6.70;99.90;;;;;;5077292;28;20480;-71
2022/02/13 12:03:28;;;;;;;9.03;5.50;;;6.70;99.90;;;;;;5077918;28;20835;-71
2022/02/13 12:06:31;;;;;;;8.17;5.13;;;6.80;99.90;;;;;;5076883;28;20449;-71
2022/02/13 12:09:03;;;;;;;7.50;5.50;;;7.10;99.90;;;;;;5083017;28;20438;-70
2022/02/13 12:11:34;;;;;;;7.03;5.43;;;7.20;99.90;;;;;;5077374;28;20726;-70
2022/02/13 12:14:11;;;;;;;6.97;5.10;;;7.50;99.90;;;;;;5078888;28;20449;-70
2022/02/13 12:16:38;;;;;;;6.20;5.60;;;8.00;99.90;;;;;;5077557;28;20444;-70
2022/02/13 12:19:05;;;;;;;7.00;4.77;;;8.80;99.90;;;;;;5077469;28;20500;-72
2022/02/13 12:21:31;;;;;;;7.57;5.00;;;9.60;99.90;;;;;;5077241;28;20915;-70
2022/02/13 12:24:02;;;;;;;5.63;4.80;;;10.20;99.90;;;;;;5077129;28;20489;-71
2022/02/13 12:26:30;;;;;;;5.60;4.60;;;10.70;99.90;;;;;;5078494;28;20524;-70
2022/02/13 12:28:59;;;;;;;5.80;4.77;;;11.30;99.90;;;;;;5079120;28;20547;-70
2022/02/13 12:31:26;;;;;;;6.80;5.03;;;11.70;99.90;;;;;;5079012;28;20486;-70
2022/02/13 12:33:55;;;;;;;5.53;4.97;;;11.80;97.40;;;;;;5079460;28;20465;-70
2022/02/13 12:36:23;;;;;;;6.20;5.10;;;12.00;95.40;;;;;;5078271;28;20482;-70
2022/02/13 12:38:54;;;;;;;5.60;4.90;;;12.10;93.20;;;;;;5079052;28;20454;-70
2022/02/13 12:41:22;;;;;;;6.00;4.80;;;11.90;91.80;;;;;;5079385;28;20716;-71
2022/02/13 12:43:50;;;;;;;5.77;4.50;;;12.00;92.20;;;;;;5079800;28;20454;-70
2022/02/13 12:46:20;;;;;;;4.93;4.17;;;12.10;90.00;;;;;;5078593;28;20492;-71
2022/02/13 12:48:47;;;;;;;10.93;5.20;;;12.20;90.00;;;;;;5078097;28;20490;-72
2022/02/13 12:51:26;;;;;;;5.30;4.57;;;12.60;86.50;;;;;;5077310;28;20488;-71
2022/02/13 12:53:56;;;;;;;6.00;4.83;;;12.90;81.00;;;;;;5079466;28;20500;-71